sensor_id;sensor_type;location;lat;lon;timestamp;P1;durP1;ratioP1;P2;durP2;ratioP2
70150;SDS011;57517;43.562;19.540;2023-04-25T00:01:31;8.70;;;6.38;;
70150;SDS011;57517;43.562;19.540;2023-04-25T00:04:01;8.45;;;6.03;;
70150;SDS011;57517;43.562;19.540;2023-04-25T00:06:27;6.93;;;5.07;;
70150;SDS011;57517;43.562;19.540;2023-04-25T00:08:55;8.90;;;5.32;;
70150;SDS011;57517;43.562;19.540;2023-04-25T00:11:21;8.77;;;5.30;;
70150;SDS011;57517;43.562;19.540;2023-04-25T00:13:47;9.48;;;5.93;;
70150;SDS011;57517;43.562;19.540;2023-04-25T00:16:14;9.68;;;6.97;;
70150;SDS011;57517;43.562;19.540;2023-04-25T00:18:41;8.27;;;4.93;;
70150;SDS011;57517;43.562;19.540;2023-04-25T00:21:07;6.97;;;5.03;;
70150;SDS011;57517;43.562;19.540;2023-04-25T00:23:33;8.45;;;6.25;;
70150;SDS011;57517;43.562;19.540;2023-04-25T00:26:01;6.55;;;4.60;;
70150;SDS011;57517;43.562;19.540;2023-04-25T00:28:27;6.65;;;4.72;;
70150;SDS011;57517;43.562;19.540;2023-04-25T00:30:53;7.53;;;4.78;;
70150;SDS011;57517;43.562;19.540;2023-04-25T00:33:19;9.25;;;6.60;;
70150;SDS011;57517;43.562;19.540;2023-04-25T00:35:45;11.10;;;6.75;;
70150;SDS011;57517;43.562;19.540;2023-04-25T00:38:10;13.40;;;7.80;;
70150;SDS011;57517;43.562;19.540;2023-04-25T00:40:36;13.40;;;9.38;;
70150;SDS011;57517;43.562;19.540;2023-04-25T00:43:02;18.10;;;8.43;;
70150;SDS011;57517;43.562;19.540;2023-04-25T00:45:29;13.55;;;9.32;;
70150;SDS011;57517;43.562;19.540;2023-04-25T00:47:55;11.00;;;7.90;;
70150;SDS011;57517;43.562;19.540;2023-04-25T00:50:21;11.88;;;8.80;;
70150;SDS011;57517;43.562;19.540;2023-04-25T00:52:48;11.20;;;8.48;;
70150;SDS011;57517;43.562;19.540;2023-04-25T00:55:14;12.52;;;9.00;;
70150;SDS011;57517;43.562;19.540;2023-04-25T00:57:40;10.55;;;9.02;;
70150;SDS011;57517;43.562;19.540;2023-04-25T01:00:07;12.55;;;8.73;;
70150;SDS011;57517;43.562;19.540;2023-04-25T01:02:38;11.23;;;7.75;;
70150;SDS011;57517;43.562;19.540;2023-04-25T01:05:06;9.65;;;5.82;;
70150;SDS011;57517;43.562;19.540;2023-04-25T01:07:32;8.07;;;5.97;;
70150;SDS011;57517;43.562;19.540;2023-04-25T01:09:58;9.10;;;6.18;;
70150;SDS011;57517;43.562;19.540;2023-04-25T01:12:24;7.88;;;6.15;;
70150;SDS011;57517;43.562;19.540;2023-04-25T01:14:50;7.47;;;5.18;;
70150;SDS011;57517;43.562;19.540;2023-04-25T01:17:16;9.02;;;6.82;;
70150;SDS011;57517;43.562;19.540;2023-04-25T01:19:43;11.63;;;7.70;;
70150;SDS011;57517;43.562;19.540;2023-04-25T01:22:11;10.80;;;7.97;;
70150;SDS011;57517;43.562;19.540;2023-04-25T01:24:36;9.60;;;8.00;;
70150;SDS011;57517;43.562;19.540;2023-04-25T01:27:02;10.85;;;7.97;;
70150;SDS011;57517;43.562;19.540;2023-04-25T01:29:29;11.13;;;8.48;;
70150;SDS011;57517;43.562;19.540;2023-04-25T01:31:55;11.00;;;8.15;;
70150;SDS011;57517;43.562;19.540;2023-04-25T01:34:23;10.48;;;7.88;;
70150;SDS011;57517;43.562;19.540;2023-04-25T01:36:49;12.25;;;8.45;;
70150;SDS011;57517;43.562;19.540;2023-04-25T01:39:16;10.23;;;7.25;;
70150;SDS011;57517;43.562;19.540;2023-04-25T01:41:43;12.93;;;8.63;;
70150;SDS011;57517;43.562;19.540;2023-04-25T01:44:10;12.35;;;8.07;;
70150;SDS011;57517;43.562;19.540;2023-04-25T01:46:36;9.38;;;6.53;;
70150;SDS011;57517;43.562;19.540;2023-04-25T01:49:02;10.90;;;7.72;;
70150;SDS011;57517;43.562;19.540;2023-04-25T01:51:28;7.13;;;5.20;;
70150;SDS011;57517;43.562;19.540;2023-04-25T01:53:53;6.85;;;5.25;;
70150;SDS011;57517;43.562;19.540;2023-04-25T01:56:20;7.88;;;4.93;;
70150;SDS011;57517;43.562;19.540;2023-04-25T01:58:46;7.57;;;5.07;;
70150;SDS011;57517;43.562;19.540;2023-04-25T02:01:12;7.03;;;4.75;;
70150;SDS011;57517;43.562;19.540;2023-04-25T02:03:38;7.05;;;4.72;;
70150;SDS011;57517;43.562;19.540;2023-04-25T02:06:04;9.23;;;5.32;;
70150;SDS011;57517;43.562;19.540;2023-04-25T02:08:29;7.78;;;5.40;;
70150;SDS011;57517;43.562;19.540;2023-04-25T02:10:56;7.07;;;5.10;;
70150;SDS011;57517;43.562;19.540;2023-04-25T02:13:22;7.72;;;5.15;;
70150;SDS011;57517;43.562;19.540;2023-04-25T02:15:48;4.60;;;3.17;;
70150;SDS011;57517;43.562;19.540;2023-04-25T02:18:14;4.45;;;2.80;;
70150;SDS011;57517;43.562;19.540;2023-04-25T02:20:43;3.45;;;2.53;;
70150;SDS011;57517;43.562;19.540;2023-04-25T02:23:09;5.03;;;3.40;;
70150;SDS011;57517;43.562;19.540;2023-04-25T02:25:35;4.40;;;2.85;;
70150;SDS011;57517;43.562;19.540;2023-04-25T02:28:00;8.70;;;4.88;;
70150;SDS011;57517;43.562;19.540;2023-04-25T02:30:26;8.57;;;4.63;;
70150;SDS011;57517;43.562;19.540;2023-04-25T02:32:52;6.95;;;4.30;;
70150;SDS011;57517;43.562;19.540;2023-04-25T02:35:18;4.97;;;3.05;;
70150;SDS011;57517;43.562;19.540;2023-04-25T02:37:44;5.13;;;2.92;;
70150;SDS011;57517;43.562;19.540;2023-04-25T02:40:10;4.63;;;2.80;;
70150;SDS011;57517;43.562;19.540;2023-04-25T02:42:36;5.80;;;4.55;;
70150;SDS011;57517;43.562;19.540;2023-04-25T02:45:02;7.00;;;3.42;;
70150;SDS011;57517;43.562;19.540;2023-04-25T02:47:28;4.70;;;3.28;;
70150;SDS011;57517;43.562;19.540;2023-04-25T02:49:54;4.97;;;2.60;;
70150;SDS011;57517;43.562;19.540;2023-04-25T02:52:20;5.88;;;3.45;;
70150;SDS011;57517;43.562;19.540;2023-04-25T02:54:46;6.00;;;3.33;;
70150;SDS011;57517;43.562;19.540;2023-04-25T02:57:12;5.25;;;2.80;;
70150;SDS011;57517;43.562;19.540;2023-04-25T02:59:37;5.53;;;3.63;;
70150;SDS011;57517;43.562;19.540;2023-04-25T03:02:03;4.20;;;3.08;;
70150;SDS011;57517;43.562;19.540;2023-04-25T03:04:29;4.93;;;3.22;;
70150;SDS011;57517;43.562;19.540;2023-04-25T03:06:55;5.18;;;3.22;;
70150;SDS011;57517;43.562;19.540;2023-04-25T03:09:21;6.95;;;4.03;;
70150;SDS011;57517;43.562;19.540;2023-04-25T03:11:46;5.53;;;3.70;;
70150;SDS011;57517;43.562;19.540;2023-04-25T03:14:12;4.25;;;2.92;;
70150;SDS011;57517;43.562;19.540;2023-04-25T03:16:38;3.95;;;2.33;;
70150;SDS011;57517;43.562;19.540;2023-04-25T03:19:04;3.63;;;2.17;;
70150;SDS011;57517;43.562;19.540;2023-04-25T03:21:31;4.30;;;2.92;;
70150;SDS011;57517;43.562;19.540;2023-04-25T03:23:58;6.55;;;2.60;;
70150;SDS011;57517;43.562;19.540;2023-04-25T03:26:24;4.40;;;2.80;;
70150;SDS011;57517;43.562;19.540;2023-04-25T03:28:50;5.43;;;3.05;;
70150;SDS011;57517;43.562;19.540;2023-04-25T03:31:16;6.18;;;4.00;;
70150;SDS011;57517;43.562;19.540;2023-04-25T03:33:41;6.53;;;4.00;;
70150;SDS011;57517;43.562;19.540;2023-04-25T03:36:07;6.18;;;4.15;;
70150;SDS011;57517;43.562;19.540;2023-04-25T03:38:33;5.75;;;3.55;;
70150;SDS011;57517;43.562;19.540;2023-04-25T03:41:00;4.82;;;3.40;;
70150;SDS011;57517;43.562;19.540;2023-04-25T03:43:26;5.93;;;3.70;;
70150;SDS011;57517;43.562;19.540;2023-04-25T03:45:52;8.10;;;5.28;;
70150;SDS011;57517;43.562;19.540;2023-04-25T03:48:18;7.00;;;4.78;;
70150;SDS011;57517;43.562;19.540;2023-04-25T03:50:46;6.90;;;4.70;;
70150;SDS011;57517;43.562;19.540;2023-04-25T03:53:12;6.57;;;3.90;;
70150;SDS011;57517;43.562;19.540;2023-04-25T03:55:38;5.38;;;3.53;;
70150;SDS011;57517;43.562;19.540;2023-04-25T03:58:04;5.90;;;3.45;;
70150;SDS011;57517;43.562;19.540;2023-04-25T04:00:30;5.00;;;3.92;;
70150;SDS011;57517;43.562;19.540;2023-04-25T04:02:55;4.45;;;3.53;;
70150;SDS011;57517;43.562;19.540;2023-04-25T04:05:21;8.25;;;5.50;;
70150;SDS011;57517;43.562;19.540;2023-04-25T04:07:48;10.93;;;6.22;;
70150;SDS011;57517;43.562;19.540;2023-04-25T04:10:14;8.90;;;6.57;;
70150;SDS011;57517;43.562;19.540;2023-04-25T04:12:39;11.80;;;8.02;;
70150;SDS011;57517;43.562;19.540;2023-04-25T04:15:05;10.00;;;6.50;;
70150;SDS011;57517;43.562;19.540;2023-04-25T04:17:32;10.13;;;6.88;;
70150;SDS011;57517;43.562;19.540;2023-04-25T04:19:57;11.25;;;7.20;;
70150;SDS011;57517;43.562;19.540;2023-04-25T04:22:23;10.98;;;7.40;;
70150;SDS011;57517;43.562;19.540;2023-04-25T04:24:50;14.20;;;7.55;;
70150;SDS011;57517;43.562;19.540;2023-04-25T04:27:18;10.93;;;8.07;;
70150;SDS011;57517;43.562;19.540;2023-04-25T04:29:45;10.10;;;7.35;;
70150;SDS011;57517;43.562;19.540;2023-04-25T04:32:11;10.52;;;7.60;;
70150;SDS011;57517;43.562;19.540;2023-04-25T04:34:38;9.35;;;6.45;;
70150;SDS011;57517;43.562;19.540;2023-04-25T04:37:04;9.15;;;5.85;;
70150;SDS011;57517;43.562;19.540;2023-04-25T04:39:32;9.10;;;5.65;;
70150;SDS011;57517;43.562;19.540;2023-04-25T04:41:58;7.75;;;5.82;;
70150;SDS011;57517;43.562;19.540;2023-04-25T04:44:26;7.25;;;5.78;;
70150;SDS011;57517;43.562;19.540;2023-04-25T04:46:53;7.45;;;5.90;;
70150;SDS011;57517;43.562;19.540;2023-04-25T04:49:20;9.80;;;6.93;;
70150;SDS011;57517;43.562;19.540;2023-04-25T04:51:46;9.70;;;7.03;;
70150;SDS011;57517;43.562;19.540;2023-04-25T04:54:12;9.52;;;6.82;;
70150;SDS011;57517;43.562;19.540;2023-04-25T04:56:38;8.30;;;6.68;;
70150;SDS011;57517;43.562;19.540;2023-04-25T04:59:04;9.93;;;8.50;;
70150;SDS011;57517;43.562;19.540;2023-04-25T05:01:30;11.35;;;7.82;;
70150;SDS011;57517;43.562;19.540;2023-04-25T05:03:56;9.73;;;7.40;;
70150;SDS011;57517;43.562;19.540;2023-04-25T05:06:25;9.38;;;7.47;;
70150;SDS011;57517;43.562;19.540;2023-04-25T05:08:52;12.13;;;10.40;;
70150;SDS011;57517;43.562;19.540;2023-04-25T05:11:18;13.32;;;10.57;;
70150;SDS011;57517;43.562;19.540;2023-04-25T05:13:44;16.33;;;11.50;;
70150;SDS011;57517;43.562;19.540;2023-04-25T05:16:11;15.20;;;11.63;;
70150;SDS011;57517;43.562;19.540;2023-04-25T05:18:37;16.08;;;12.25;;
70150;SDS011;57517;43.562;19.540;2023-04-25T05:21:04;14.57;;;12.30;;
70150;SDS011;57517;43.562;19.540;2023-04-25T05:23:30;14.60;;;11.90;;
70150;SDS011;57517;43.562;19.540;2023-04-25T05:25:57;13.93;;;11.65;;
70150;SDS011;57517;43.562;19.540;2023-04-25T05:28:23;12.25;;;9.27;;
70150;SDS011;57517;43.562;19.540;2023-04-25T05:30:49;11.55;;;9.43;;
70150;SDS011;57517;43.562;19.540;2023-04-25T05:33:15;12.75;;;10.05;;
70150;SDS011;57517;43.562;19.540;2023-04-25T05:35:41;14.95;;;11.35;;
70150;SDS011;57517;43.562;19.540;2023-04-25T05:38:07;18.25;;;12.60;;
70150;SDS011;57517;43.562;19.540;2023-04-25T05:40:33;14.68;;;11.77;;
70150;SDS011;57517;43.562;19.540;2023-04-25T05:42:59;15.07;;;12.20;;
70150;SDS011;57517;43.562;19.540;2023-04-25T05:45:24;15.27;;;13.25;;
70150;SDS011;57517;43.562;19.540;2023-04-25T05:47:50;15.43;;;12.30;;
70150;SDS011;57517;43.562;19.540;2023-04-25T05:50:16;15.18;;;11.90;;
70150;SDS011;57517;43.562;19.540;2023-04-25T05:52:42;17.02;;;11.35;;
70150;SDS011;57517;43.562;19.540;2023-04-25T05:55:08;16.20;;;11.80;;
70150;SDS011;57517;43.562;19.540;2023-04-25T05:57:34;24.73;;;17.48;;
70150;SDS011;57517;43.562;19.540;2023-04-25T06:00:00;23.63;;;19.02;;
70150;SDS011;57517;43.562;19.540;2023-04-25T06:02:25;47.78;;;34.60;;
70150;SDS011;57517;43.562;19.540;2023-04-25T06:04:52;31.25;;;24.58;;
70150;SDS011;57517;43.562;19.540;2023-04-25T06:07:18;28.20;;;23.75;;
70150;SDS011;57517;43.562;19.540;2023-04-25T06:09:44;27.00;;;23.20;;
70150;SDS011;57517;43.562;19.540;2023-04-25T06:12:10;31.80;;;25.50;;
70150;SDS011;57517;43.562;19.540;2023-04-25T06:14:36;16.48;;;12.15;;
70150;SDS011;57517;43.562;19.540;2023-04-25T06:17:02;16.08;;;11.30;;
70150;SDS011;57517;43.562;19.540;2023-04-25T06:19:33;20.92;;;18.15;;
70150;SDS011;57517;43.562;19.540;2023-04-25T06:22:00;18.05;;;12.18;;
70150;SDS011;57517;43.562;19.540;2023-04-25T06:24:26;15.65;;;11.23;;
70150;SDS011;57517;43.562;19.540;2023-04-25T06:26:52;10.65;;;8.73;;
70150;SDS011;57517;43.562;19.540;2023-04-25T06:29:18;11.40;;;9.25;;
70150;SDS011;57517;43.562;19.540;2023-04-25T06:31:44;9.05;;;7.30;;
70150;SDS011;57517;43.562;19.540;2023-04-25T06:34:10;11.20;;;7.35;;
70150;SDS011;57517;43.562;19.540;2023-04-25T06:36:36;12.55;;;10.50;;
70150;SDS011;57517;43.562;19.540;2023-04-25T06:39:02;10.02;;;8.35;;
70150;SDS011;57517;43.562;19.540;2023-04-25T06:41:27;11.32;;;7.85;;
70150;SDS011;57517;43.562;19.540;2023-04-25T06:43:53;14.40;;;8.73;;
70150;SDS011;57517;43.562;19.540;2023-04-25T06:46:19;14.98;;;9.10;;
70150;SDS011;57517;43.562;19.540;2023-04-25T06:48:45;9.23;;;6.90;;
70150;SDS011;57517;43.562;19.540;2023-04-25T06:51:11;9.35;;;6.65;;
70150;SDS011;57517;43.562;19.540;2023-04-25T06:53:38;17.13;;;15.38;;
70150;SDS011;57517;43.562;19.540;2023-04-25T06:56:04;13.20;;;9.95;;
70150;SDS011;57517;43.562;19.540;2023-04-25T06:58:30;11.65;;;7.50;;
70150;SDS011;57517;43.562;19.540;2023-04-25T07:00:56;11.93;;;8.10;;
70150;SDS011;57517;43.562;19.540;2023-04-25T07:03:22;12.38;;;9.45;;
70150;SDS011;57517;43.562;19.540;2023-04-25T07:05:49;11.40;;;7.30;;
70150;SDS011;57517;43.562;19.540;2023-04-25T07:08:15;12.25;;;8.23;;
70150;SDS011;57517;43.562;19.540;2023-04-25T07:10:41;12.10;;;8.98;;
70150;SDS011;57517;43.562;19.540;2023-04-25T07:13:07;12.10;;;9.18;;
70150;SDS011;57517;43.562;19.540;2023-04-25T07:15:33;20.13;;;15.32;;
70150;SDS011;57517;43.562;19.540;2023-04-25T07:17:59;13.13;;;10.65;;
70150;SDS011;57517;43.562;19.540;2023-04-25T07:20:25;16.13;;;11.70;;
70150;SDS011;57517;43.562;19.540;2023-04-25T07:22:52;13.35;;;9.93;;
70150;SDS011;57517;43.562;19.540;2023-04-25T07:25:18;12.50;;;8.77;;
70150;SDS011;57517;43.562;19.540;2023-04-25T07:27:44;14.48;;;8.75;;
70150;SDS011;57517;43.562;19.540;2023-04-25T07:30:10;11.05;;;7.97;;
70150;SDS011;57517;43.562;19.540;2023-04-25T07:32:37;8.52;;;5.50;;
70150;SDS011;57517;43.562;19.540;2023-04-25T07:35:03;9.18;;;6.38;;
70150;SDS011;57517;43.562;19.540;2023-04-25T07:37:29;6.65;;;5.47;;
70150;SDS011;57517;43.562;19.540;2023-04-25T07:39:55;10.82;;;7.95;;
70150;SDS011;57517;43.562;19.540;2023-04-25T07:42:21;7.70;;;5.60;;
70150;SDS011;57517;43.562;19.540;2023-04-25T07:44:47;8.95;;;7.10;;
70150;SDS011;57517;43.562;19.540;2023-04-25T07:47:12;7.22;;;6.00;;
70150;SDS011;57517;43.562;19.540;2023-04-25T07:49:38;8.48;;;6.13;;
70150;SDS011;57517;43.562;19.540;2023-04-25T07:52:05;10.05;;;8.05;;
70150;SDS011;57517;43.562;19.540;2023-04-25T07:54:31;9.27;;;6.32;;
70150;SDS011;57517;43.562;19.540;2023-04-25T07:56:57;6.75;;;5.32;;
70150;SDS011;57517;43.562;19.540;2023-04-25T07:59:23;7.45;;;6.47;;
70150;SDS011;57517;43.562;19.540;2023-04-25T08:01:49;7.18;;;5.70;;
70150;SDS011;57517;43.562;19.540;2023-04-25T08:04:15;10.77;;;7.60;;
70150;SDS011;57517;43.562;19.540;2023-04-25T08:06:42;7.97;;;5.78;;
70150;SDS011;57517;43.562;19.540;2023-04-25T08:09:08;10.50;;;8.65;;
70150;SDS011;57517;43.562;19.540;2023-04-25T08:11:34;8.15;;;7.32;;
70150;SDS011;57517;43.562;19.540;2023-04-25T08:14:00;10.98;;;9.25;;
70150;SDS011;57517;43.562;19.540;2023-04-25T08:16:26;8.85;;;6.30;;
70150;SDS011;57517;43.562;19.540;2023-04-25T08:18:52;25.27;;;18.73;;
70150;SDS011;57517;43.562;19.540;2023-04-25T08:21:18;16.40;;;13.00;;
70150;SDS011;57517;43.562;19.540;2023-04-25T08:23:44;16.50;;;13.70;;
70150;SDS011;57517;43.562;19.540;2023-04-25T08:26:10;13.18;;;9.43;;
70150;SDS011;57517;43.562;19.540;2023-04-25T08:28:36;10.63;;;7.70;;
70150;SDS011;57517;43.562;19.540;2023-04-25T08:31:02;18.45;;;15.52;;
70150;SDS011;57517;43.562;19.540;2023-04-25T08:33:28;17.33;;;10.00;;
70150;SDS011;57517;43.562;19.540;2023-04-25T08:35:55;10.45;;;8.63;;
70150;SDS011;57517;43.562;19.540;2023-04-25T08:38:21;9.60;;;5.95;;
70150;SDS011;57517;43.562;19.540;2023-04-25T08:40:48;19.08;;;15.40;;
70150;SDS011;57517;43.562;19.540;2023-04-25T08:43:17;24.02;;;17.23;;
70150;SDS011;57517;43.562;19.540;2023-04-25T08:45:44;20.83;;;17.17;;
70150;SDS011;57517;43.562;19.540;2023-04-25T08:48:11;26.95;;;21.08;;
70150;SDS011;57517;43.562;19.540;2023-04-25T08:50:45;15.15;;;11.38;;
70150;SDS011;57517;43.562;19.540;2023-04-25T08:53:23;13.25;;;11.15;;
70150;SDS011;57517;43.562;19.540;2023-04-25T08:55:52;13.05;;;10.43;;
70150;SDS011;57517;43.562;19.540;2023-04-25T08:58:20;23.67;;;18.80;;
70150;SDS011;57517;43.562;19.540;2023-04-25T09:00:48;19.67;;;15.80;;
70150;SDS011;57517;43.562;19.540;2023-04-25T09:03:16;9.60;;;8.32;;
70150;SDS011;57517;43.562;19.540;2023-04-25T09:05:42;10.40;;;8.15;;
70150;SDS011;57517;43.562;19.540;2023-04-25T09:08:10;11.30;;;9.32;;
70150;SDS011;57517;43.562;19.540;2023-04-25T09:10:36;16.48;;;13.40;;
70150;SDS011;57517;43.562;19.540;2023-04-25T09:13:06;13.27;;;10.65;;
70150;SDS011;57517;43.562;19.540;2023-04-25T09:15:57;8.68;;;7.32;;
70150;SDS011;57517;43.562;19.540;2023-04-25T09:18:24;11.23;;;10.02;;
70150;SDS011;57517;43.562;19.540;2023-04-25T09:20:54;25.23;;;11.60;;
70150;SDS011;57517;43.562;19.540;2023-04-25T09:23:41;22.15;;;13.27;;
70150;SDS011;57517;43.562;19.540;2023-04-25T09:26:15;31.73;;;21.15;;
70150;SDS011;57517;43.562;19.540;2023-04-25T09:28:42;27.17;;;21.17;;
70150;SDS011;57517;43.562;19.540;2023-04-25T09:31:09;27.17;;;21.15;;
70150;SDS011;57517;43.562;19.540;2023-04-25T09:33:38;28.98;;;22.10;;
70150;SDS011;57517;43.562;19.540;2023-04-25T09:36:06;16.73;;;13.05;;
70150;SDS011;57517;43.562;19.540;2023-04-25T09:38:40;14.93;;;12.23;;
70150;SDS011;57517;43.562;19.540;2023-04-25T09:41:08;15.18;;;12.15;;
70150;SDS011;57517;43.562;19.540;2023-04-25T09:43:34;13.82;;;9.95;;
70150;SDS011;57517;43.562;19.540;2023-04-25T09:46:01;21.65;;;17.25;;
70150;SDS011;57517;43.562;19.540;2023-04-25T09:48:27;22.77;;;16.45;;
70150;SDS011;57517;43.562;19.540;2023-04-25T09:51:04;20.10;;;15.93;;
70150;SDS011;57517;43.562;19.540;2023-04-25T09:53:39;14.95;;;12.32;;
70150;SDS011;57517;43.562;19.540;2023-04-25T09:56:07;14.63;;;12.85;;
70150;SDS011;57517;43.562;19.540;2023-04-25T09:58:35;19.25;;;16.42;;
70150;SDS011;57517;43.562;19.540;2023-04-25T10:01:03;14.90;;;12.23;;
70150;SDS011;57517;43.562;19.540;2023-04-25T10:03:31;13.80;;;10.13;;
70150;SDS011;57517;43.562;19.540;2023-04-25T10:05:59;18.80;;;15.48;;
70150;SDS011;57517;43.562;19.540;2023-04-25T10:08:30;13.65;;;11.75;;
70150;SDS011;57517;43.562;19.540;2023-04-25T10:11:01;12.73;;;10.15;;
70150;SDS011;57517;43.562;19.540;2023-04-25T10:13:28;13.43;;;10.35;;
70150;SDS011;57517;43.562;19.540;2023-04-25T10:15:56;14.20;;;10.55;;
70150;SDS011;57517;43.562;19.540;2023-04-25T10:18:27;10.52;;;8.02;;
70150;SDS011;57517;43.562;19.540;2023-04-25T10:21:03;12.80;;;10.25;;
70150;SDS011;57517;43.562;19.540;2023-04-25T10:23:30;11.88;;;9.73;;
70150;SDS011;57517;43.562;19.540;2023-04-25T10:25:57;11.15;;;8.98;;
70150;SDS011;57517;43.562;19.540;2023-04-25T10:28:23;12.27;;;9.38;;
70150;SDS011;57517;43.562;19.540;2023-04-25T10:30:59;17.42;;;15.70;;
70150;SDS011;57517;43.562;19.540;2023-04-25T10:33:33;11.90;;;9.68;;
70150;SDS011;57517;43.562;19.540;2023-04-25T10:38:39;8.02;;;6.93;;
70150;SDS011;57517;43.562;19.540;2023-04-25T10:41:06;7.90;;;6.47;;
70150;SDS011;57517;43.562;19.540;2023-04-25T10:43:41;8.38;;;6.97;;
70150;SDS011;57517;43.562;19.540;2023-04-25T10:48:54;10.30;;;8.80;;
70150;SDS011;57517;43.562;19.540;2023-04-25T10:51:21;14.02;;;10.60;;
70150;SDS011;57517;43.562;19.540;2023-04-25T10:56:33;7.60;;;5.88;;
70150;SDS011;57517;43.562;19.540;2023-04-25T10:59:12;9.00;;;6.93;;
70150;SDS011;57517;43.562;19.540;2023-04-25T11:01:43;7.25;;;5.68;;
70150;SDS011;57517;43.562;19.540;2023-04-25T11:04:24;6.68;;;5.57;;
70150;SDS011;57517;43.562;19.540;2023-04-25T11:09:32;7.38;;;6.05;;
70150;SDS011;57517;43.562;19.540;2023-04-25T11:11:59;5.88;;;4.88;;
70150;SDS011;57517;43.562;19.540;2023-04-25T11:14:25;6.20;;;5.25;;
70150;SDS011;57517;43.562;19.540;2023-04-25T11:16:55;6.72;;;5.35;;
70150;SDS011;57517;43.562;19.540;2023-04-25T11:19:24;6.97;;;5.03;;
70150;SDS011;57517;43.562;19.540;2023-04-25T11:21:54;5.80;;;4.85;;
70150;SDS011;57517;43.562;19.540;2023-04-25T11:24:30;5.80;;;4.90;;
70150;SDS011;57517;43.562;19.540;2023-04-25T11:26:58;6.97;;;6.28;;
70150;SDS011;57517;43.562;19.540;2023-04-25T11:29:31;6.07;;;5.07;;
70150;SDS011;57517;43.562;19.540;2023-04-25T11:31:59;9.10;;;7.45;;
70150;SDS011;57517;43.562;19.540;2023-04-25T11:34:27;7.15;;;5.35;;
70150;SDS011;57517;43.562;19.540;2023-04-25T11:36:55;7.60;;;6.07;;
70150;SDS011;57517;43.562;19.540;2023-04-25T11:39:23;6.85;;;5.60;;
70150;SDS011;57517;43.562;19.540;2023-04-25T11:41:50;5.75;;;4.57;;
70150;SDS011;57517;43.562;19.540;2023-04-25T11:44:17;7.15;;;5.75;;
70150;SDS011;57517;43.562;19.540;2023-04-25T11:46:43;7.28;;;6.32;;
70150;SDS011;57517;43.562;19.540;2023-04-25T11:49:10;7.22;;;5.18;;
70150;SDS011;57517;43.562;19.540;2023-04-25T11:51:39;4.80;;;4.05;;
70150;SDS011;57517;43.562;19.540;2023-04-25T11:54:06;5.65;;;4.35;;
70150;SDS011;57517;43.562;19.540;2023-04-25T11:56:32;5.60;;;4.30;;
70150;SDS011;57517;43.562;19.540;2023-04-25T11:58:59;6.57;;;5.20;;
70150;SDS011;57517;43.562;19.540;2023-04-25T12:01:30;6.22;;;4.53;;
70150;SDS011;57517;43.562;19.540;2023-04-25T12:03:57;6.28;;;4.90;;
70150;SDS011;57517;43.562;19.540;2023-04-25T12:06:30;8.63;;;6.70;;
70150;SDS011;57517;43.562;19.540;2023-04-25T12:09:03;5.18;;;4.18;;
70150;SDS011;57517;43.562;19.540;2023-04-25T12:11:32;6.72;;;5.40;;
70150;SDS011;57517;43.562;19.540;2023-04-25T12:14:25;5.57;;;4.80;;
70150;SDS011;57517;43.562;19.540;2023-04-25T12:16:52;8.45;;;6.72;;
70150;SDS011;57517;43.562;19.540;2023-04-25T12:19:20;6.82;;;5.35;;
70150;SDS011;57517;43.562;19.540;2023-04-25T12:21:47;6.18;;;4.38;;
70150;SDS011;57517;43.562;19.540;2023-04-25T12:24:17;5.63;;;5.03;;
70150;SDS011;57517;43.562;19.540;2023-04-25T12:26:51;7.78;;;6.18;;
70150;SDS011;57517;43.562;19.540;2023-04-25T12:31:49;6.72;;;4.93;;
70150;SDS011;57517;43.562;19.540;2023-04-25T12:34:16;5.40;;;4.32;;
70150;SDS011;57517;43.562;19.540;2023-04-25T12:36:43;5.82;;;4.07;;
70150;SDS011;57517;43.562;19.540;2023-04-25T12:39:14;4.80;;;3.80;;
70150;SDS011;57517;43.562;19.540;2023-04-25T12:41:40;5.53;;;4.18;;
70150;SDS011;57517;43.562;19.540;2023-04-25T12:44:06;6.68;;;4.75;;
70150;SDS011;57517;43.562;19.540;2023-04-25T12:46:32;5.57;;;4.28;;
70150;SDS011;57517;43.562;19.540;2023-04-25T12:48:58;7.45;;;4.70;;
70150;SDS011;57517;43.562;19.540;2023-04-25T12:51:23;5.20;;;3.63;;
70150;SDS011;57517;43.562;19.540;2023-04-25T12:53:50;5.65;;;3.95;;
70150;SDS011;57517;43.562;19.540;2023-04-25T12:56:17;5.10;;;4.30;;
70150;SDS011;57517;43.562;19.540;2023-04-25T12:58:43;7.47;;;5.63;;
70150;SDS011;57517;43.562;19.540;2023-04-25T13:01:09;7.20;;;5.25;;
70150;SDS011;57517;43.562;19.540;2023-04-25T13:03:37;5.78;;;4.60;;
70150;SDS011;57517;43.562;19.540;2023-04-25T13:06:03;8.65;;;6.43;;
70150;SDS011;57517;43.562;19.540;2023-04-25T13:08:29;9.23;;;6.97;;
70150;SDS011;57517;43.562;19.540;2023-04-25T13:10:55;7.80;;;6.63;;
70150;SDS011;57517;43.562;19.540;2023-04-25T13:13:21;7.63;;;5.95;;
70150;SDS011;57517;43.562;19.540;2023-04-25T13:15:47;7.35;;;5.88;;
70150;SDS011;57517;43.562;19.540;2023-04-25T13:18:13;7.10;;;5.72;;
70150;SDS011;57517;43.562;19.540;2023-04-25T13:20:40;4.65;;;3.83;;
70150;SDS011;57517;43.562;19.540;2023-04-25T13:23:06;7.57;;;5.97;;
70150;SDS011;57517;43.562;19.540;2023-04-25T13:25:31;8.52;;;6.75;;
70150;SDS011;57517;43.562;19.540;2023-04-25T13:27:57;10.82;;;8.55;;
70150;SDS011;57517;43.562;19.540;2023-04-25T13:30:23;9.88;;;7.13;;
70150;SDS011;57517;43.562;19.540;2023-04-25T13:32:49;10.68;;;9.20;;
70150;SDS011;57517;43.562;19.540;2023-04-25T13:35:19;13.18;;;10.77;;
70150;SDS011;57517;43.562;19.540;2023-04-25T13:37:45;8.70;;;6.90;;
70150;SDS011;57517;43.562;19.540;2023-04-25T13:40:11;6.97;;;4.97;;
70150;SDS011;57517;43.562;19.540;2023-04-25T13:42:38;6.68;;;5.03;;
70150;SDS011;57517;43.562;19.540;2023-04-25T13:45:04;7.60;;;5.88;;
70150;SDS011;57517;43.562;19.540;2023-04-25T13:47:31;8.88;;;7.22;;
70150;SDS011;57517;43.562;19.540;2023-04-25T13:49:56;7.32;;;4.93;;
70150;SDS011;57517;43.562;19.540;2023-04-25T13:52:22;5.82;;;4.05;;
70150;SDS011;57517;43.562;19.540;2023-04-25T13:54:52;5.05;;;4.10;;
70150;SDS011;57517;43.562;19.540;2023-04-25T13:57:18;5.03;;;3.92;;
70150;SDS011;57517;43.562;19.540;2023-04-25T13:59:44;6.20;;;4.35;;
70150;SDS011;57517;43.562;19.540;2023-04-25T14:02:11;5.63;;;4.03;;
70150;SDS011;57517;43.562;19.540;2023-04-25T14:04:37;5.97;;;5.03;;
70150;SDS011;57517;43.562;19.540;2023-04-25T14:07:03;6.82;;;5.60;;
70150;SDS011;57517;43.562;19.540;2023-04-25T14:09:30;8.52;;;5.88;;
70150;SDS011;57517;43.562;19.540;2023-04-25T14:11:56;8.00;;;6.50;;
70150;SDS011;57517;43.562;19.540;2023-04-25T14:14:22;10.88;;;9.05;;
70150;SDS011;57517;43.562;19.540;2023-04-25T14:16:48;8.82;;;5.60;;
70150;SDS011;57517;43.562;19.540;2023-04-25T14:19:15;6.75;;;5.40;;
70150;SDS011;57517;43.562;19.540;2023-04-25T14:21:42;7.22;;;5.60;;
70150;SDS011;57517;43.562;19.540;2023-04-25T14:24:11;8.60;;;6.20;;
70150;SDS011;57517;43.562;19.540;2023-04-25T14:26:37;8.25;;;5.22;;
70150;SDS011;57517;43.562;19.540;2023-04-25T14:29:03;6.47;;;5.15;;
70150;SDS011;57517;43.562;19.540;2023-04-25T14:31:32;7.38;;;4.80;;
70150;SDS011;57517;43.562;19.540;2023-04-25T14:33:58;6.90;;;5.05;;
70150;SDS011;57517;43.562;19.540;2023-04-25T14:36:24;8.48;;;5.85;;
70150;SDS011;57517;43.562;19.540;2023-04-25T14:38:51;7.03;;;4.60;;